• Join FlightAware (Why Join?)
  • Login
  • US Flag 
06:55PM EDT


 

Airport Tracker/Info


-or-


 

Live Flight TrackerFlight Track Log ✈ UAL495 ✈ 24-04-2013 ✈ KLAX - KDEN

Flight Track Log - Related Links

Times and Time Zones

All times are in EDT time to prevent confusion due to time zone crossing. See the UAL495 flight status page for this flight to view local times or setup timezone preferences in your user account.

Time Position Orientation Groundspeed Altitude Reporting Facility
EDT Latitude Longitude Course Direction KTS MPH feet Rate Location/Type
08:51AM 33.9333 -118.4333 116° Southeast 182 209 1,200  Level Southern California TRACON
08:51AM 33.9319 -118.4375 248° West 185 213 1,400 2,400 Climbing Los Angeles Center
08:52AM 33.8917 -118.5097 236° Southwest 240 276 4,300 3,120 Climbing Los Angeles Center
08:53AM 33.8219 -118.5350 197° South 262 302 7,700 3,060 Climbing Los Angeles Center
08:54AM 33.7675 -118.6234 132° Southeast  Level FlightAware Approximate
08:54AM 33.7464 -118.5258 174° South 275 316 10,500  Level Los Angeles Center
08:55AM 33.6831 -118.5152 101° East  Level FlightAware Approximate
08:55AM 33.6808 -118.4686 144° Southeast 331 381 12,600  Level Los Angeles Center
08:56AM 33.6494 -118.3734 116° Southeast  Level FlightAware Approximate
08:56AM 33.6511 -118.3614 108° East 346 398 15,300  Level Los Angeles Center
08:57AM 33.6436 -118.2400 94° East 380 437 17,400 2,100 Climbing Los Angeles Center
08:58AM 33.6961 -118.1306 60° Northeast 415 478 19,600 2,100 Climbing Los Angeles Center
08:59AM 33.7897 -118.0472 36° Northeast 425 489 21,700 1,860 Climbing Los Angeles Center
09:00AM 33.8875 -117.9603 36° Northeast 438 504 23,400 2,160 Climbing Los Angeles Center
09:01AM 34.0069 -117.8511 37° Northeast 449 517 26,100 1,980 Climbing Los Angeles Center
09:02AM 34.1064 -117.7539 39° Northeast 459 528 27,500 1,380 Climbing Los Angeles Center
09:03AM 34.1950 -117.6347 48° Northeast 476 548 29,000 1,500 Climbing Los Angeles Center
09:04AM 34.2836 -117.5122 49° Northeast 482 555 30,600 1,680 Climbing Los Angeles Center
09:05AM 34.3719 -117.3906 49° Northeast 482 555 32,400 1,380 Climbing Los Angeles Center
09:06AM 34.4467 -117.2869 49° Northeast 485 558 33,500 1,260 Climbing Los Angeles Center
09:07AM 34.5531 -117.1417 48° Northeast 484 557 35,000 720 Climbing Los Angeles Center
09:08AM 34.6264 -117.0486 46° Northeast 483 556 35,000  Level Los Angeles Center
09:09AM 34.7394 -116.9078 46° Northeast 488 562 35,000  Level Los Angeles Center
09:10AM 34.8317 -116.7900 46° Northeast 484 557 35,000  Level Los Angeles Center
09:12AM 34.9222 -116.6722 47° Northeast 481 554 35,000  Level Los Angeles Center
09:13AM 35.0150 -116.5519 47° Northeast 487 560 35,000  Level Los Angeles Center
09:14AM 35.1067 -116.4342 46° Northeast 483 556 35,000  Level Los Angeles Center
09:15AM 35.1994 -116.3156 46° Northeast 484 557 35,000  Level Los Angeles Center
09:16AM 35.2914 -116.1961 47° Northeast 482 555 35,000  Level Los Angeles Center
09:17AM 35.3825 -116.0747 47° Northeast 485 558 35,000  Level Los Angeles Center
09:18AM 35.4761 -115.9547 46° Northeast 487 560 35,000  Level Los Angeles Center
09:19AM 35.5794 -115.8194 47° Northeast 488 562 35,000  Level Los Angeles Center
09:20AM 35.6731 -115.6994 46° Northeast 486 559 35,000  Level Los Angeles Center
09:21AM 35.7642 -115.5775 47° Northeast 486 559 35,000  Level Los Angeles Center
09:22AM 35.8533 -115.4519 49° Northeast 487 560 35,000  Level Los Angeles Center
09:23AM 35.9111 -115.2978 65° Northeast 498 573 35,000  Level Los Angeles Center
09:24AM 35.9833 -115.1197 63° Northeast 488 562 35,000  Level Los Angeles Center
09:25AM 36.0422 -114.9661 65° Northeast 496 571 35,000  Level Los Angeles Center
09:26AM 36.1006 -114.8111 65° Northeast 499 574 35,000  Level Los Angeles Center
09:27AM 36.1578 -114.6575 65° Northeast 497 572 35,000  Level Los Angeles Center
09:28AM 36.2125 -114.5019 66° East 495 570 35,000  Level Los Angeles Center
09:29AM 36.2692 -114.3475 65° Northeast 494 568 35,000  Level Los Angeles Center
09:30AM 36.3256 -114.1922 66° East 495 570 35,000  Level Los Angeles Center
09:31AM 36.3806 -114.0356 66° East 497 572 35,000  Level Los Angeles Center
09:32AM 36.4358 -113.8781 66° East 497 572 35,000  Level Los Angeles Center
09:33AM 36.4800 -113.7531 66° East 496 571 35,000  Level Los Angeles Center
09:34AM 36.5592 -113.5342 66° East 501 577 35,000  Level Los Angeles Center
09:35AM 36.6156 -113.3775 66° East 499 574 35,000  Level Los Angeles Center
09:36AM 36.6708 -113.2183 67° East 502 578 35,000  Level Los Angeles Center
09:37AM 36.7264 -113.0603 66° East 502 578 35,000  Level Los Angeles Center
09:38AM 36.7808 -112.9003 67° East 503 579 35,000  Level Los Angeles Center
09:39AM 36.8356 -112.7417 67° East 502 578 35,000  Level Los Angeles Center
09:40AM 36.8906 -112.5819 67° East 504 580 35,000  Level Los Angeles Center
09:41AM 36.9547 -112.3900 67° East 504 580 35,000  Level Los Angeles Center
09:42AM 37.0097 -112.2303 67° East 504 580 35,000  Level Los Angeles Center
09:43AM 37.0522 -112.1019 67° East 504 580 35,000  Level Denver Center
09:44AM 37.1072 -111.9394 67° East 508 585 35,000  Level Denver Center
09:45AM 37.1622 -111.7764 67° East 510 587 35,000  Level Denver Center
09:46AM 37.2161 -111.6125 68° East 511 588 35,000  Level Denver Center
09:47AM 37.2697 -111.4475 68° East 513 590 35,000  Level Denver Center
09:48AM 37.3347 -111.2483 68° East 518 596 35,000  Level Denver Center
09:49AM 37.3894 -111.0817 68° East 518 596 35,000  Level Denver Center
09:50AM 37.4439 -110.9133 68° East 520 598 35,000  Level Denver Center
09:51AM 37.4981 -110.7442 68° East 522 601 35,000  Level Denver Center
09:52AM 37.5522 -110.5758 68° East 522 601 35,000  Level Denver Center
09:53AM 37.6056 -110.4069 68° East 521 600 35,000  Level Denver Center
09:54AM 37.6656 -110.2158 68° East 524 603 35,000  Level Denver Center
09:55AM 37.7175 -110.0514 68° East 525 604 35,000  Level Denver Center
09:56AM 37.7683 -109.8878 68° East 524 603 35,000  Level Denver Center
09:57AM 37.8281 -109.6972 68° East 523 602 35,000  Level Denver Center
09:58AM 37.8778 -109.5322 69° East 522 601 35,000  Level Denver Center
09:59AM 37.9281 -109.3672 69° East 524 603 35,000  Level Denver Center
10:00AM 37.9867 -109.1731 69° East 527 606 35,000  Level Denver Center
10:01AM 38.0369 -109.0075 69° East 527 606 35,000  Level Denver Center
10:02AM 38.0881 -108.8369 69° East 533 613 35,000  Level Denver Center
10:03AM 38.1456 -108.6417 69° East 533 613 35,000  Level Denver Center
10:04AM 38.1956 -108.4747 69° East 530 610 35,000  Level Denver Center
10:05AM 38.2536 -108.2792 69° East 530 610 35,000  Level Denver Center
10:06AM 38.3025 -108.1106 70° East 531 611 35,000  Level Denver Center
10:07AM 38.3514 -107.9436 69° East 529 609 35,000  Level Denver Center
10:08AM 38.4064 -107.7475 70° East 529 609 35,000  Level Denver Center
10:09AM 38.4567 -107.5808 69° East 528 608 35,000  Level Denver Center
10:10AM 38.5369 -107.4003 60° Northeast 523 602 35,000  Level Denver Center
10:11AM 38.6056 -107.2472 60° Northeast 519 597 35,000  Level Denver Center
10:12AM 38.6836 -107.0739 60° Northeast 524 603 35,000 -60 Level Denver Center
10:14AM 38.7556 -106.9131 60° Northeast 524 603 34,900 -840 Descending Denver Center
10:15AM 38.8281 -106.7475 61° Northeast 533 613 33,300 -1,380 Descending Denver Center
10:16AM 38.9089 -106.5669 60° Northeast 542 624 32,100 -1,080 Descending Denver Center
10:17AM 38.9822 -106.4108 59° Northeast 536 617 31,100 -1,200 Descending Denver Center
10:18AM 39.0647 -106.2289 60° Northeast 529 609 29,700 -1,620 Descending Denver Center
10:19AM 39.1306 -106.0811 60° Northeast 526 605 27,900 -1,860 Descending Denver Center
10:20AM 39.1992 -105.9236 61° Northeast 505 581 26,000 -2,040 Descending Denver Center
10:21AM 39.2778 -105.7483 60° Northeast 482 555 23,700 -1,860 Descending Denver Center
10:22AM 39.3378 -105.6111 60° Northeast 440 506 22,200 -1,320 Descending Denver Center
10:23AM 39.3933 -105.4847 60° Northeast 407 468 21,000 -1,380 Descending Denver Center
10:24AM 39.4508 -105.3758 56° Northeast 370 426 19,400 -1,620 Descending Denver Center
10:25AM 39.5072 -105.2681 56° Northeast 364 419 17,800 -1,620 Descending Denver Center
10:26AM 39.5717 -105.1453 56° Northeast 377 434 16,200 -1,440 Descending Denver Center
10:27AM 39.6269 -105.0386 56° Northeast 356 410 14,900 -1,080 Descending Denver Center
10:28AM 39.6858 -104.9253 56° Northeast 351 404 14,000 -540 Descending Denver Center
10:29AM 39.7397 -104.8239 55° Northeast 345 397 13,900 -900 Descending Denver Center
10:30AM 39.7883 -104.7222 58° Northeast 340 391 12,200 -1,440 Descending Denver Center
10:31AM 39.7875 -104.5956 90° East 333 383 11,000 -720 Descending Denver Center
10:32AM 39.7847 -104.4986 92° East 266 306 10,800 -600 Descending Denver Center
10:33AM 39.8061 -104.4267 69° East 213 245 9,800 -1,200 Descending Denver Center
10:34AM 39.8511 -104.4542 335° Northwest 186 214 8,400 -1,380 Descending Denver Center